Time,TemperatureF,DewpointF,PressureIn,WindDirection,WindDirectionDegrees,WindSpeedMPH,WindSpeedGustMPH,Humidity,HourlyPrecipIn,Conditions,Clouds,dailyrainin,SoftwareType,DateUTC
2013-04-15 00:04:00,36.0,27.5,30.15,East,83,0.0,0.0,71,0.00,,,0.00,Wunderground v.1.15,2013-04-15 04:04:00,
2013-04-15 00:09:00,35.9,27.4,30.15,East,83,0.0,0.0,71,0.00,,,0.00,Wunderground v.1.15,2013-04-15 04:09:00,
2013-04-15 00:14:00,36.0,27.2,30.15,East,83,0.0,0.0,70,0.00,,,0.00,Wunderground v.1.15,2013-04-15 04:14:00,
2013-04-15 00:24:00,36.2,27.4,30.14,East,83,0.0,0.0,70,0.00,,,0.00,Wunderground v.1.15,2013-04-15 04:24:00,
2013-04-15 00:34:00,36.5,27.3,30.14,East,83,0.0,0.0,69,0.00,,,0.00,Wunderground v.1.15,2013-04-15 04:34:00,
2013-04-15 00:39:00,36.5,27.3,30.14,East,94,0.0,0.0,69,0.00,,,0.00,Wunderground v.1.15,2013-04-15 04:39:00,
2013-04-15 00:49:00,36.2,27.0,30.14,East,94,0.0,0.0,69,0.00,,,0.00,Wunderground v.1.15,2013-04-15 04:49:00,
2013-04-15 00:59:00,36.2,27.0,30.13,SE,139,0.0,0.0,69,0.00,,,0.00,Wunderground v.1.15,2013-04-15 04:59:00,
2013-04-15 01:04:00,36.2,27.0,30.13,SE,124,0.0,0.0,69,0.00,,,0.00,Wunderground v.1.15,2013-04-15 05:04:00,
2013-04-15 01:14:00,36.3,26.7,30.13,South,176,0.0,0.0,68,0.00,,,0.00,Wunderground v.1.15,2013-04-15 05:14:00,
2013-04-15 01:19:00,36.3,26.7,30.13,South,176,0.0,0.0,68,0.00,,,0.00,Wunderground v.1.15,2013-04-15 05:19:00,
2013-04-15 01:29:00,36.3,26.7,30.13,SSE,150,0.0,0.0,68,0.00,,,0.00,Wunderground v.1.15,2013-04-15 05:29:00,
2013-04-15 01:34:00,36.3,26.7,30.13,South,170,0.0,0.0,68,0.00,,,0.00,Wunderground v.1.15,2013-04-15 05:34:00,
2013-04-15 01:44:00,36.5,26.9,30.13,South,170,0.0,0.0,68,0.00,,,0.00,Wunderground v.1.15,2013-04-15 05:44:00,
2013-04-15 01:53:00,36.6,26.7,30.13,SSE,155,0.0,0.0,67,0.00,,,0.00,Wunderground v.1.15,2013-04-15 05:53:00,
2013-04-15 01:59:00,36.8,26.9,30.13,South,177,0.0,0.0,67,0.00,,,0.00,Wunderground v.1.15,2013-04-15 05:59:00,
2013-04-15 02:04:00,36.8,26.9,30.12,South,177,0.0,0.0,67,0.00,,,0.00,Wunderground v.1.15,2013-04-15 06:04:00,
2013-04-15 02:14:00,36.9,26.6,30.12,South,183,0.0,0.0,66,0.00,,,0.00,Wunderground v.1.15,2013-04-15 06:14:00,
2013-04-15 02:24:00,36.8,26.9,30.11,SSE,167,0.0,0.0,67,0.00,,,0.00,Wunderground v.1.15,2013-04-15 06:24:00,
2013-04-15 02:29:00,36.8,26.9,30.11,South,188,0.0,0.0,67,0.00,,,0.00,Wunderground v.1.15,2013-04-15 06:29:00,
2013-04-15 02:34:00,36.8,26.9,30.10,South,182,0.0,0.0,67,0.00,,,0.00,Wunderground v.1.15,2013-04-15 06:34:00,
2013-04-15 02:44:00,36.9,26.6,30.10,South,172,0.0,0.0,66,0.00,,,0.00,Wunderground v.1.15,2013-04-15 06:44:00,
2013-04-15 02:54:00,37.0,26.3,30.10,South,181,0.0,0.0,65,0.00,,,0.00,Wunderground v.1.15,2013-04-15 06:54:00,
2013-04-15 02:59:00,37.2,26.5,30.10,South,173,0.0,0.0,65,0.00,,,0.00,Wunderground v.1.15,2013-04-15 06:59:00,
2013-04-15 03:04:00,37.2,26.5,30.10,South,178,0.0,0.0,65,0.00,,,0.00,Wunderground v.1.15,2013-04-15 07:04:00,
2013-04-15 03:44:00,37.2,26.9,30.11,SSW,199,0.0,0.0,66,0.00,,,0.00,Wunderground v.1.15,2013-04-15 07:44:00,
2013-04-15 03:49:00,37.2,26.9,30.11,SSW,196,0.0,0.0,66,0.00,,,0.00,Wunderground v.1.15,2013-04-15 07:49:00,
2013-04-15 03:59:00,37.3,26.6,30.12,South,190,0.0,0.0,65,0.00,,,0.00,Wunderground v.1.15,2013-04-15 07:59:00,
2013-04-15 04:04:00,37.3,26.6,30.12,South,182,0.0,0.0,65,0.00,,,0.00,Wunderground v.1.15,2013-04-15 08:04:00,
2013-04-15 04:09:00,37.3,26.6,30.12,SSW,196,0.0,0.0,65,0.00,,,0.00,Wunderground v.1.15,2013-04-15 08:09:00,
2013-04-15 04:19:00,37.3,26.6,30.12,South,169,0.0,0.0,65,0.00,,,0.00,Wunderground v.1.15,2013-04-15 08:19:00,
2013-04-15 04:24:00,37.3,26.6,30.12,South,176,0.0,0.0,65,0.00,,,0.00,Wunderground v.1.15,2013-04-15 08:24:00,
2013-04-15 04:34:00,37.5,26.8,30.12,SSE,161,0.0,0.0,65,0.00,,,0.00,Wunderground v.1.15,2013-04-15 08:34:00,
2013-04-15 04:39:00,37.5,26.8,30.12,SSE,165,0.0,0.0,65,0.00,,,0.00,Wunderground v.1.15,2013-04-15 08:39:00,
2013-04-15 04:44:00,37.6,26.9,30.12,South,187,0.0,0.0,65,0.00,,,0.00,Wunderground v.1.15,2013-04-15 08:44:00,
2013-04-15 04:48:00,37.8,27.1,30.12,SSW,202,0.0,0.0,65,0.00,,,0.00,Wunderground v.1.15,2013-04-15 08:48:00,
2013-04-15 04:54:00,37.9,26.8,30.12,South,184,0.0,0.0,64,0.00,,,0.00,Wunderground v.1.15,2013-04-15 08:54:00,
2013-04-15 05:04:00,38.3,27.2,30.12,South,182,0.0,0.0,64,0.00,,,0.00,Wunderground v.1.15,2013-04-15 09:04:00,
2013-04-15 05:14:00,38.6,27.1,30.12,South,187,0.0,0.0,63,0.00,,,0.00,Wunderground v.1.15,2013-04-15 09:14:00,
2013-04-15 05:24:00,38.8,27.3,30.13,South,175,0.0,0.0,63,0.00,,,0.00,Wunderground v.1.15,2013-04-15 09:24:00,
2013-04-15 05:34:00,38.9,27.4,30.13,SSE,167,0.0,0.0,63,0.00,,,0.00,Wunderground v.1.15,2013-04-15 09:34:00,
2013-04-15 05:39:00,38.9,27.0,30.13,SSE,166,0.0,0.0,62,0.00,,,0.00,Wunderground v.1.15,2013-04-15 09:39:00,
2013-04-15 05:49:00,39.1,27.2,30.13,South,170,0.0,0.0,62,0.00,,,0.00,Wunderground v.1.15,2013-04-15 09:49:00,
2013-04-15 05:59:00,39.2,27.3,30.13,South,180,0.0,0.0,62,0.00,,,0.00,Wunderground v.1.15,2013-04-15 09:59:00,
2013-04-15 06:04:00,39.1,27.2,30.13,South,184,0.0,0.0,62,0.00,,,0.00,Wunderground v.1.15,2013-04-15 10:04:00,
2013-04-15 06:14:00,39.2,27.3,30.13,SSW,194,0.0,0.0,62,0.00,,,0.00,Wunderground v.1.15,2013-04-15 10:14:00,
2013-04-15 06:24:00,39.2,27.7,30.13,South,178,0.0,0.0,63,0.00,,,0.00,Wunderground v.1.15,2013-04-15 10:24:00,
2013-04-15 06:33:00,39.3,27.7,30.13,South,184,0.0,0.0,63,0.00,,,0.00,Wunderground v.1.15,2013-04-15 10:33:00,
2013-04-15 06:39:00,39.5,27.9,30.13,South,173,0.0,0.0,63,0.00,,,0.00,Wunderground v.1.15,2013-04-15 10:39:00,
2013-04-15 06:49:00,39.8,27.8,30.13,SSW,202,0.0,0.0,62,0.00,,,0.00,Wunderground v.1.15,2013-04-15 10:49:00,
2013-04-15 06:59:00,39.9,28.3,30.14,South,181,0.0,0.0,63,0.00,,,0.00,Wunderground v.1.15,2013-04-15 10:59:00,
2013-04-15 07:04:00,39.9,28.3,30.15,South,184,0.0,0.0,63,0.00,,,0.00,Wunderground v.1.15,2013-04-15 11:04:00,
2013-04-15 07:13:00,40.2,28.6,30.15,South,180,0.0,0.0,63,0.00,,,0.00,Wunderground v.1.15,2013-04-15 11:13:00,
2013-04-15 07:19:00,40.3,28.7,30.15,SSE,149,0.0,0.0,63,0.00,,,0.00,Wunderground v.1.15,2013-04-15 11:19:00,
2013-04-15 07:29:00,40.2,29.0,30.15,SSW,192,0.0,0.0,64,0.00,,,0.00,Wunderground v.1.15,2013-04-15 11:29:00,
2013-04-15 07:44:00,39.9,30.2,30.17,SSW,209,0.0,0.0,68,0.00,,,0.00,Wunderground v.1.15,2013-04-15 11:44:00,
2013-04-15 07:54:00,39.9,30.2,30.17,SSE,167,0.0,0.0,68,0.00,,,0.00,Wunderground v.1.15,2013-04-15 11:54:00,
2013-04-15 08:04:00,40.1,30.4,30.17,South,179,0.0,0.0,68,0.00,,,0.00,Wunderground v.1.15,2013-04-15 12:04:00,
2013-04-15 08:15:00,40.3,30.6,30.17,South,169,0.0,0.0,68,0.00,,,0.00,Wunderground v.1.15,2013-04-15 12:15:00,
2013-04-15 08:25:00,40.8,31.1,30.16,South,181,0.0,0.0,68,0.00,,,0.00,Wunderground v.1.15,2013-04-15 12:25:00,
2013-04-15 08:35:00,41.5,31.0,30.17,ESE,109,0.0,0.0,66,0.00,,,0.00,Wunderground v.1.15,2013-04-15 12:35:00,
2013-04-15 08:45:00,42.2,30.9,30.17,SSW,203,0.0,0.0,64,0.00,,,0.00,Wunderground v.1.15,2013-04-15 12:45:00,
2013-04-15 08:55:00,42.9,31.6,30.16,South,191,0.0,0.0,64,0.00,,,0.00,Wunderground v.1.15,2013-04-15 12:55:00,
2013-04-15 09:05:00,43.8,31.2,30.15,South,190,0.0,0.0,61,0.00,,,0.00,Wunderground v.1.15,2013-04-15 13:05:00,
2013-04-15 09:15:00,44.2,32.4,30.15,South,177,0.0,0.0,63,0.00,,,0.00,Wunderground v.1.15,2013-04-15 13:15:00,
2013-04-15 09:20:00,44.2,32.0,30.15,South,178,0.0,0.0,62,0.00,,,0.00,Wunderground v.1.15,2013-04-15 13:20:00,
2013-04-15 09:30:00,44.2,32.0,30.15,SSW,197,0.0,0.0,62,0.00,,,0.00,Wunderground v.1.15,2013-04-15 13:30:00,
2013-04-15 09:35:00,44.3,32.1,30.14,SSW,201,0.0,0.0,62,0.00,,,0.00,Wunderground v.1.15,2013-04-15 13:35:00,
2013-04-15 09:40:00,44.6,32.0,30.14,South,177,0.0,0.0,61,0.00,,,0.00,Wunderground v.1.15,2013-04-15 13:40:00,
2013-04-15 09:50:00,45.4,33.1,30.14,South,180,0.0,0.0,62,0.00,,,0.00,Wunderground v.1.15,2013-04-15 13:50:00,
2013-04-15 10:00:00,45.7,33.0,30.14,SSW,192,0.0,0.0,61,0.00,,,0.00,Wunderground v.1.15,2013-04-15 14:00:00,
2013-04-15 10:10:00,46.0,33.7,30.15,South,180,0.0,0.0,62,0.00,,,0.00,Wunderground v.1.15,2013-04-15 14:10:00,
2013-04-15 10:20:00,46.1,33.4,30.15,SSW,198,0.0,0.0,61,0.00,,,0.00,Wunderground v.1.15,2013-04-15 14:20:00,
2013-04-15 10:25:00,46.2,33.5,30.15,SSW,193,0.0,0.0,61,0.00,,,0.00,Wunderground v.1.15,2013-04-15 14:25:00,
2013-04-15 10:35:00,46.7,33.5,30.14,SSW,208,0.0,0.0,60,0.00,,,0.00,Wunderground v.1.15,2013-04-15 14:35:00,
2013-04-15 10:44:00,47.3,34.1,30.14,SW,227,0.0,0.0,60,0.00,,,0.00,Wunderground v.1.15,2013-04-15 14:44:00,
2013-04-15 10:50:00,47.6,34.4,30.14,SSW,193,0.0,0.0,60,0.00,,,0.00,Wunderground v.1.15,2013-04-15 14:50:00,
2013-04-15 11:00:00,48.2,34.5,30.14,SSW,203,0.0,0.0,59,0.00,,,0.00,Wunderground v.1.15,2013-04-15 15:00:00,
2013-04-15 11:05:00,48.5,34.4,30.13,SSW,212,0.0,0.0,58,0.00,,,0.00,Wunderground v.1.15,2013-04-15 15:05:00,
2013-04-15 11:14:00,48.9,35.2,30.13,SSW,198,0.0,0.0,59,0.00,,,0.00,Wunderground v.1.15,2013-04-15 15:14:00,
2013-04-15 11:25:00,49.5,35.3,30.13,SSW,204,0.0,0.0,58,0.00,,,0.00,Wunderground v.1.15,2013-04-15 15:25:00,
2013-04-15 11:35:00,50.2,36.0,30.12,SSW,196,0.0,0.0,58,0.00,,,0.00,Wunderground v.1.15,2013-04-15 15:35:00,
2013-04-15 11:45:00,51.4,36.7,30.12,South,190,0.0,0.0,57,0.00,,,0.00,Wunderground v.1.15,2013-04-15 15:45:00,
2013-04-15 11:55:00,52.6,38.2,30.11,SW,221,0.0,0.0,58,0.00,,,0.00,Wunderground v.1.15,2013-04-15 15:55:00,
2013-04-15 12:05:00,54.1,39.2,30.11,WSW,244,0.0,0.0,57,0.00,,,0.00,Wunderground v.1.15,2013-04-15 16:05:00,
2013-04-15 12:14:00,55.7,40.2,30.11,SSW,207,0.0,0.0,56,0.00,,,0.00,Wunderground v.1.15,2013-04-15 16:14:00,
2013-04-15 12:25:00,56.7,41.2,30.10,WSW,250,0.0,0.0,56,0.00,,,0.00,Wunderground v.1.15,2013-04-15 16:25:00,
2013-04-15 12:35:00,58.3,43.1,30.09,SW,221,0.0,0.0,57,0.00,,,0.00,Wunderground v.1.15,2013-04-15 16:35:00,
2013-04-15 12:44:00,59.2,41.6,30.09,SW,232,0.0,0.0,52,0.00,,,0.00,Wunderground v.1.15,2013-04-15 16:44:00,
2013-04-15 12:49:00,59.6,42.9,30.08,South,190,0.0,0.0,54,0.00,,,0.00,Wunderground v.1.15,2013-04-15 16:49:00,
2013-04-15 13:00:00,61.0,43.2,30.08,WSW,238,0.0,0.0,52,0.00,,,0.00,Wunderground v.1.15,2013-04-15 17:00:00,
2013-04-15 13:05:00,62.0,44.2,30.08,SSW,206,0.0,0.0,52,0.00,,,0.00,Wunderground v.1.15,2013-04-15 17:05:00,
2013-04-15 13:15:00,62.3,45.4,30.08,SW,215,0.0,0.0,54,0.00,,,0.00,Wunderground v.1.15,2013-04-15 17:15:00,
2013-04-15 13:25:00,63.2,45.3,30.07,South,182,0.0,0.0,52,0.00,,,0.00,Wunderground v.1.15,2013-04-15 17:25:00,
2013-04-15 13:29:00,63.2,44.2,30.07,South,182,0.0,0.0,50,0.00,,,0.00,Wunderground v.1.15,2013-04-15 17:29:00,
2013-04-15 13:34:00,63.7,45.2,30.07,West,259,0.0,0.0,51,0.00,,,0.00,Wunderground v.1.15,2013-04-15 17:34:00,
2013-04-15 13:40:00,64.7,45.6,30.07,SW,217,0.0,0.0,50,0.00,,,0.00,Wunderground v.1.15,2013-04-15 17:40:00,
2013-04-15 13:50:00,64.5,44.9,30.07,WSW,240,0.0,0.0,49,0.00,,,0.00,Wunderground v.1.15,2013-04-15 17:50:00,
2013-04-15 13:59:00,65.0,45.9,30.07,WSW,247,0.0,0.0,50,0.00,,,0.00,Wunderground v.1.15,2013-04-15 17:59:00,
2013-04-15 14:05:00,65.3,46.2,30.06,SW,229,0.0,0.0,50,0.00,,,0.00,Wunderground v.1.15,2013-04-15 18:05:00,
2013-04-15 14:15:00,65.8,45.6,30.06,SW,236,0.0,0.0,48,0.00,,,0.00,Wunderground v.1.15,2013-04-15 18:15:00,
2013-04-15 14:24:00,65.8,43.9,30.06,WSW,244,0.0,0.0,45,0.00,,,0.00,Wunderground v.1.15,2013-04-15 18:24:00,
2013-04-15 14:29:00,66.0,44.6,30.06,SW,219,0.0,0.0,46,0.00,,,0.00,Wunderground v.1.15,2013-04-15 18:29:00,
2013-04-15 14:35:00,66.0,45.7,30.06,WSW,243,0.0,0.0,48,0.00,,,0.00,Wunderground v.1.15,2013-04-15 18:35:00,
2013-04-15 14:40:00,65.8,45.0,30.06,SSW,205,0.0,0.0,47,0.00,,,0.00,Wunderground v.1.15,2013-04-15 18:40:00,
2013-04-15 14:45:00,65.3,43.4,30.06,WSW,238,0.0,0.0,45,0.00,,,0.00,Wunderground v.1.15,2013-04-15 18:45:00,
2013-04-15 14:55:00,65.5,45.8,30.05,SW,222,0.0,0.0,49,0.00,,,0.00,Wunderground v.1.15,2013-04-15 18:55:00,
2013-04-15 15:05:00,66.4,45.0,30.06,SW,224,0.0,0.0,46,0.00,,,0.00,Wunderground v.1.15,2013-04-15 19:05:00,
2013-04-15 15:15:00,66.0,45.2,30.06,WSW,246,0.0,0.0,47,0.00,,,0.00,Wunderground v.1.15,2013-04-15 19:15:00,
2013-04-15 15:25:00,65.2,43.9,30.06,SW,231,0.0,0.0,46,0.00,,,0.00,Wunderground v.1.15,2013-04-15 19:25:00,
2013-04-15 15:35:00,65.6,44.8,30.06,WSW,240,0.0,0.0,47,0.00,,,0.00,Wunderground v.1.15,2013-04-15 19:35:00,
2013-04-15 15:44:00,66.0,45.2,30.06,WSW,258,0.0,0.0,47,0.00,,,0.00,Wunderground v.1.15,2013-04-15 19:44:00,
2013-04-15 15:50:00,66.0,44.0,30.06,SW,236,0.0,0.0,45,0.00,,,0.00,Wunderground v.1.15,2013-04-15 19:50:00,
2013-04-15 16:00:00,64.7,44.5,30.06,WSW,240,0.0,0.0,48,0.00,,,0.00,Wunderground v.1.15,2013-04-15 20:00:00,
2013-04-15 16:05:00,63.9,43.8,30.06,WSW,242,0.0,0.0,48,0.00,,,0.00,Wunderground v.1.15,2013-04-15 20:05:00,
2013-04-15 16:09:00,63.5,44.0,30.06,WSW,238,0.0,0.0,49,0.00,,,0.00,Wunderground v.1.15,2013-04-15 20:09:00,
2013-04-15 16:20:00,63.5,44.5,30.06,SW,220,0.0,0.0,50,0.00,,,0.00,Wunderground v.1.15,2013-04-15 20:20:00,
2013-04-15 16:25:00,63.5,44.5,30.06,WSW,240,0.0,0.0,50,0.00,,,0.00,Wunderground v.1.15,2013-04-15 20:25:00,
2013-04-15 16:30:00,63.5,44.5,30.06,WSW,248,0.0,0.0,50,0.00,,,0.00,Wunderground v.1.15,2013-04-15 20:30:00,
2013-04-15 16:40:00,62.9,44.0,30.06,SW,234,0.0,0.0,50,0.00,,,0.00,Wunderground v.1.15,2013-04-15 20:40:00,
2013-04-15 16:50:00,62.6,44.7,30.05,SW,231,0.0,0.0,52,0.00,,,0.00,Wunderground v.1.15,2013-04-15 20:50:00,
2013-04-15 16:59:00,62.7,44.3,30.05,WSW,245,0.0,0.0,51,0.00,,,0.00,Wunderground v.1.15,2013-04-15 20:59:00,
2013-04-15 17:05:00,63.5,45.6,30.05,SSW,207,0.0,0.0,52,0.00,,,0.00,Wunderground v.1.15,2013-04-15 21:05:00,
2013-04-15 17:15:00,63.4,43.9,30.05,South,191,0.0,0.0,49,0.00,,,0.00,Wunderground v.1.15,2013-04-15 21:15:00,
2013-04-15 17:25:00,62.6,43.7,30.05,SW,215,0.0,0.0,50,0.00,,,0.00,Wunderground v.1.15,2013-04-15 21:25:00,
2013-04-15 17:35:00,62.4,44.5,30.05,SW,234,0.0,0.0,52,0.00,,,0.00,Wunderground v.1.15,2013-04-15 21:35:00,
2013-04-15 17:45:00,63.2,44.2,30.05,SSW,193,0.0,0.0,50,0.00,,,0.00,Wunderground v.1.15,2013-04-15 21:45:00,
2013-04-15 17:55:00,62.3,43.4,30.05,South,191,0.0,0.0,50,0.00,,,0.00,Wunderground v.1.15,2013-04-15 21:55:00,
2013-04-15 18:05:00,62.1,43.7,30.05,South,188,0.0,0.0,51,0.00,,,0.00,Wunderground v.1.15,2013-04-15 22:05:00,
2013-04-15 18:15:00,62.1,44.3,30.05,South,180,0.0,0.0,52,0.00,,,0.00,Wunderground v.1.15,2013-04-15 22:15:00,
2013-04-15 18:25:00,61.8,44.0,30.05,SSW,206,0.0,0.0,52,0.00,,,0.00,Wunderground v.1.15,2013-04-15 22:25:00,
2013-04-15 18:34:00,61.6,43.8,30.05,SSW,205,0.0,0.0,52,0.00,,,0.00,Wunderground v.1.15,2013-04-15 22:34:00,
2013-04-15 18:40:00,61.5,44.7,30.05,SSW,201,0.0,0.0,54,0.00,,,0.00,Wunderground v.1.15,2013-04-15 22:40:00,
2013-04-15 18:50:00,61.3,44.5,30.05,SSW,201,0.0,0.0,54,0.00,,,0.00,Wunderground v.1.15,2013-04-15 22:50:00,
2013-04-15 18:59:00,61.2,44.4,30.05,SSW,205,0.0,0.0,54,0.00,,,0.00,Wunderground v.1.15,2013-04-15 22:59:00,
2013-04-15 19:05:00,61.0,44.2,30.05,SSW,210,0.0,0.0,54,0.00,,,0.00,Wunderground v.1.15,2013-04-15 23:05:00,
2013-04-15 19:15:00,60.7,44.4,30.05,SSW,208,0.0,0.0,55,0.00,,,0.00,Wunderground v.1.15,2013-04-15 23:15:00,
2013-04-15 19:25:00,60.2,44.4,30.05,WSW,243,0.0,0.0,56,0.00,,,0.00,Wunderground v.1.15,2013-04-15 23:25:00,
2013-04-15 19:35:00,60.1,44.3,30.05,South,186,0.0,0.0,56,0.00,,,0.00,Wunderground v.1.15,2013-04-15 23:35:00,
2013-04-15 19:45:00,59.8,44.5,30.05,SW,236,0.0,0.0,57,0.00,,,0.00,Wunderground v.1.15,2013-04-15 23:45:00,
2013-04-15 19:55:00,59.5,44.2,30.04,WSW,238,0.0,0.0,57,0.00,,,0.00,Wunderground v.1.15,2013-04-15 23:55:00,
2013-04-15 20:05:00,59.5,44.2,30.05,WSW,242,0.0,0.0,57,0.00,,,0.00,Wunderground v.1.15,2013-04-16 00:05:00,
2013-04-15 20:15:00,59.3,44.1,30.05,SSW,212,0.0,0.0,57,0.00,,,0.00,Wunderground v.1.15,2013-04-16 00:15:00,
2013-04-15 20:25:00,59.2,44.4,30.05,WSW,239,0.0,0.0,58,0.00,,,0.00,Wunderground v.1.15,2013-04-16 00:25:00,
2013-04-15 20:34:00,59.2,44.4,30.06,SW,224,0.0,0.0,58,0.00,,,0.00,Wunderground v.1.15,2013-04-16 00:34:00,
2013-04-15 20:40:00,59.0,44.7,30.06,SW,217,0.0,0.0,59,0.00,,,0.00,Wunderground v.1.15,2013-04-16 00:40:00,
2013-04-15 20:50:00,58.9,44.1,30.06,SW,216,0.0,0.0,58,0.00,,,0.00,Wunderground v.1.15,2013-04-16 00:50:00,
2013-04-15 21:00:00,58.3,44.0,30.06,SSW,197,0.0,0.0,59,0.00,,,0.00,Wunderground v.1.15,2013-04-16 01:00:00,
2013-04-15 21:05:00,58.1,44.3,30.07,SW,214,0.0,0.0,60,0.00,,,0.00,Wunderground v.1.15,2013-04-16 01:05:00,
2013-04-15 21:14:00,58.1,43.8,30.07,West,267,0.0,0.0,59,0.00,,,0.00,Wunderground v.1.15,2013-04-16 01:14:00,
2013-04-15 21:20:00,57.8,44.0,30.08,WSW,241,0.0,0.0,60,0.00,,,0.00,Wunderground v.1.15,2013-04-16 01:20:00,
2013-04-15 21:30:00,57.5,44.1,30.08,SSW,201,0.0,0.0,61,0.00,,,0.00,Wunderground v.1.15,2013-04-16 01:30:00,
2013-04-15 21:39:00,57.3,44.4,30.08,SW,215,0.0,0.0,62,0.00,,,0.00,Wunderground v.1.15,2013-04-16 01:39:00,
2013-04-15 21:45:00,57.2,44.3,30.08,SSW,199,0.0,0.0,62,0.00,,,0.00,Wunderground v.1.15,2013-04-16 01:45:00,
2013-04-15 21:55:00,56.3,43.4,30.09,SSW,196,0.0,0.0,62,0.00,,,0.00,Wunderground v.1.15,2013-04-16 01:55:00,
2013-04-15 22:05:00,56.2,43.3,30.09,WSW,244,0.0,0.0,62,0.00,,,0.00,Wunderground v.1.15,2013-04-16 02:05:00,
2013-04-15 22:14:00,55.9,43.5,30.09,SSW,202,0.0,0.0,63,0.00,,,0.00,Wunderground v.1.15,2013-04-16 02:14:00,
2013-04-15 22:25:00,55.9,43.5,30.09,SSW,192,0.0,0.0,63,0.00,,,0.00,Wunderground v.1.15,2013-04-16 02:25:00,
2013-04-15 22:30:00,55.7,43.7,30.09,WSW,246,0.0,0.0,64,0.00,,,0.00,Wunderground v.1.15,2013-04-16 02:30:00,
2013-04-15 22:40:00,55.6,43.6,30.09,South,182,0.0,0.0,64,0.00,,,0.00,Wunderground v.1.15,2013-04-16 02:40:00,
2013-04-15 22:49:00,55.3,43.7,30.09,South,183,0.0,0.0,65,0.00,,,0.00,Wunderground v.1.15,2013-04-16 02:49:00,
2013-04-15 22:55:00,55.3,43.7,30.09,SW,236,0.0,0.0,65,0.00,,,0.00,Wunderground v.1.15,2013-04-16 02:55:00,
2013-04-15 23:05:00,55.3,43.3,30.09,WSW,237,0.0,0.0,64,0.00,,,0.00,Wunderground v.1.15,2013-04-16 03:05:00,
2013-04-15 23:15:00,55.1,43.1,30.09,WSW,238,0.0,0.0,64,0.00,,,0.00,Wunderground v.1.15,2013-04-16 03:15:00,
2013-04-15 23:24:00,55.1,43.1,30.09,SSW,209,0.0,0.0,64,0.00,,,0.00,Wunderground v.1.15,2013-04-16 03:24:00,
2013-04-15 23:30:00,55.1,43.1,30.09,WSW,244,0.0,0.0,64,0.00,,,0.00,Wunderground v.1.15,2013-04-16 03:30:00,
2013-04-15 23:40:00,55.0,43.0,30.10,SW,225,0.0,0.0,64,0.00,,,0.00,Wunderground v.1.15,2013-04-16 03:40:00,
2013-04-15 23:49:00,54.8,43.3,30.09,SSW,208,0.0,0.0,65,0.00,,,0.00,Wunderground v.1.15,2013-04-16 03:49:00,
2013-04-15 23:55:00,54.7,43.2,30.09,SSW,210,0.0,0.0,65,0.00,,,0.00,Wunderground v.1.15,2013-04-16 03:55:00,